Alamo, Nevada Weather observations

Data are for observation ending at time listed.
 Day   Time    Ave.   Ave.  Ave.  Vector   Max.   Stn.    Total    Solar   Ave.  
  of    of     Air    Rel.  Wind   Wind    Wind   Baro.  Precip.   Rad.    Soil  
Year   Day     Temp.  Hum.  Speed  Dir.    Gust   Pres.                    Temp. 
2020   (PST)    F      %     mph   deg.    mph     mb.     in.     W/m2     F   
------------------------------------------------------------------------------
  87    4:00   35.2    94    0.0     0      0.0   891.1    0.00       0    43.9
  87    4:10   35.2    94    0.1    51      0.8   891.2    0.00       0    43.8
  87    4:20   35.4    94    0.9    30      3.3   891.3    0.00       0    43.8
  87    4:30   35.5    94    0.5    60      2.9   891.3    0.00       0    43.7
  87    4:40   35.5    94    0.2    64      1.8   891.4    0.00       0    43.6
  87    4:50   35.1    94    0.1    66      1.5   891.4    0.00       0    43.5
  87    5:00   34.7    94    0.2    15      1.7   891.4    0.00       0    43.4
  87    5:10   34.6    93    0.3    22      1.2   891.5    0.00       0    43.3
  87    5:20   34.4    93    1.4    58      3.9   891.6    0.00       0    43.2
  87    5:30   34.5    91    1.2    62      3.7   891.6    0.00       0    43.1
  87    5:40   34.4    90    1.3    61      3.1   891.7    0.00       0    43.0
  87    5:50   34.3    88    1.2    62      3.4   891.8    0.00       0    42.9
  87    6:00   34.0    87    1.8    59      4.2   891.9    0.00       9    42.8
  87    6:10   33.8    86    1.5    51      3.7   892.1    0.00      14    42.7
  87    6:20   33.6    85    2.1    57      4.2   892.3    0.00      15    42.5
  87    6:30   33.7    84    1.5    45      3.9   892.5    0.00      20    42.4
  87    6:40   33.6    84    1.8    47      3.5   892.5    0.00      20    42.3
  87    6:50   33.8    83    1.5    46      3.1   892.5    0.00      23    42.2
  87    7:00   34.4    80    2.4    42      5.3   892.6    0.00      27    42.1
  87    7:10   35.1    77    2.3    38      3.4   892.8    0.00      29    41.9
  87    7:20   36.6    73    2.9    10      6.6   892.9    0.00      31    41.9
  87    7:30   38.3    65    4.2   352      7.5   893.0    0.00      45    41.8
  87    7:40   39.3    59    4.9   344     10.4   893.1    0.00      34    41.8
  87    7:50   40.2    56    4.4   319      8.8   893.3    0.00      38    41.7
  87    8:00   40.5    52    5.2   334     10.9   893.4    0.00      38    41.7
  87    8:10   41.0    51    4.5   340      9.5   893.4    0.00      35    41.7
  87    8:20   41.3    50    4.7     5     10.2   893.4    0.00      34    41.7
  87    8:30   42.0    49    4.9   337      9.0   893.5    0.00      35    41.7
  87    8:40   42.7    46    4.6   342      8.3   893.5    0.00      34    41.7
  87    8:50   43.4    43    4.9   327      7.7   893.5    0.00      33    41.8
  87    9:00   44.1    43    4.2   329      6.9   893.5    0.00      35    41.8
  87    9:10   44.7    39    5.7   332     10.9   893.5    0.00      78    41.8
  87    9:20   45.0    36    4.4   332     11.2   893.6    0.00      82    41.8
  87    9:30   45.4    33    4.7   357      9.3   893.7    0.00      59    41.9
  87    9:40   46.1    31    5.9   344     12.8   893.8    0.00      40    41.9
  87    9:50   46.7    29    5.3   331     10.7   893.9    0.00      40    41.9
  87   10:00   47.0    27    6.0   331     12.6   894.0    0.00      41    42.0
  87   10:10   47.1    27    5.6   327     12.2   894.0    0.00      50    42.1
  87   10:20   47.4    26    6.7   342     13.7   894.0    0.00      73    42.1
  87   10:30   47.4    24    7.3   351     14.8   894.0    0.00      41    42.1
  87   10:40   47.4    23    6.1   360     16.1   894.0    0.00      42    42.2
  87   10:50   48.1    24    7.4   356     14.1   893.9    0.00      47    42.2
  87   11:00   48.0    22    8.1     4     14.7   893.9    0.00      52    42.3
  87   11:10   48.5    23    7.0   339     11.9   893.9    0.00      61    42.3
  87   11:20   49.1    24    4.8   344      9.7   893.8    0.00      58    42.5
  87   11:30   49.6    23    5.2   332     10.3   893.7    0.00      66    42.7
  87   11:40   49.9    23    5.5     8      9.9   893.6    0.00     115    43.2
  87   11:50   49.8    24    6.2     6     11.3   893.7    0.00     295    43.7
  87   12:00   50.2    24    5.2   353     10.9   893.7    0.00     254    44.3
  87   12:10   50.0    23    2.0   325      6.7   893.6    0.00     338    45.1
  87   12:20   52.7    21    2.1   263      6.6   893.5    0.00     292    46.5
  87   12:30   52.1    23    4.3   307     10.6   893.5    0.00     224    48.0
  87   12:40   51.5    23    4.5   312      9.9   893.5    0.00     634    49.3
  87   12:50   52.3    21    4.2     4     11.5   893.5    0.00     795    50.1
  87   13:00   52.0    23    4.0   331     10.9   893.4    0.00     641    51.1
  87   13:10   52.1    22    5.3   346     11.2   893.4    0.00     913    51.9
  87   13:20   52.7    21    5.3   350     14.5   893.3    0.00     881    52.7
  87   13:30   52.4    20    5.0    15     10.4   893.3    0.00     908    53.5
  87   13:40   53.2    20    5.0   344     11.6   893.3    0.00     917    54.3
  87   13:50   54.7    19    5.0   266      9.3   893.3    0.00     757    55.0
  87   14:00   55.5    19    4.0   330     10.1   893.3    0.00     760    55.7
  87   14:10   53.5    20    5.7   354      9.7   893.2    0.00     833    56.3
  87   14:20   53.6    19    5.0    19     11.0   893.2    0.00     841    56.8
  87   14:30   54.6    20    4.8   335      9.1   893.2    0.00     835    57.3
  87   14:40   56.6    20    3.5   316      9.3   893.2    0.00     809    57.8
  87   14:50   55.2    20    5.0    11     12.1   893.3    0.00     791    58.4
  87   15:00   54.6    20    6.5   352     12.5   893.3    0.00     737    58.9
  87   15:10   54.6    20    5.3     4     10.8   893.3    0.00     669    59.1
  87   15:20   55.3    20    4.9   326     10.4   893.3    0.00     649    59.2
  87   15:30   55.9    20    5.8   336     13.5   893.4    0.00     631    59.3
  87   15:40   55.2    19    4.7   340      8.3   893.5    0.00     620    59.4
  87   15:50   56.2    19    4.1   318      9.6   893.5    0.00     591    59.5
  87   16:00   55.4    21    4.6   344      9.6   893.4    0.00     383    59.6
  87   16:10   56.0    20    4.8   312      8.9   893.5    0.00     468    59.5
  87   16:20   56.4    20    5.4   319     12.0   893.4    0.00     452    59.1
  87   16:30   55.7    20    3.7   332      8.5   893.5    0.00     410    58.7
  87   16:40   55.3    20    4.9   332      9.0   893.7    0.00     313    58.2
  87   16:50   54.5    21    4.4   333      9.1   893.8    0.00     307    57.7
  87   17:00   54.1    20    4.6   323      8.5   893.9    0.00     246    57.1
  87   17:10   53.7    21    3.9   349      8.8   894.0    0.00     131    56.4
  87   17:20   53.3    22    3.1   332      6.0   894.1    0.00     112    55.8
  87   17:30   52.9    23    2.6   345      5.0   894.2    0.00     105    55.3
  87   17:40   52.5    24    3.3   337      6.6   894.3    0.00      81    54.7
  87   17:50   51.9    24    2.8   359      6.4   894.3    0.00      17    54.2
  87   18:00   51.3    25    1.8   326      3.6   894.4    0.00      13    53.7
  87   18:10   50.6    26    0.8    27      2.0   894.4    0.00       6    53.3
  87   18:20   49.7    29    0.5    37      1.3   894.6    0.00       0    52.9
  87   18:30   48.5    33    0.1    33      0.9   894.7    0.00       0    52.5
  87   18:40   47.3    36    0.0    28      0.4   894.8    0.00       0    52.1
  87   18:50   45.8    40    0.1   236      1.3   894.8    0.00       0    51.7
  87   19:00   45.2    43    1.3   287      2.5   894.9    0.00       0    51.3
  87   19:10   44.6    45    0.4   289      1.8   895.0    0.00       0    51.0
  87   19:20   43.8    47    0.0     0      0.0   895.1    0.00       0    50.6
  87   19:30   42.9    49    0.1   357      1.1   895.3    0.00       0    50.3
  87   19:40   42.5    50    0.7    40      2.2   895.4    0.00       0    50.0
  87   19:50   42.6    52    0.7    40      1.9   895.6    0.00       0    49.7
  87   20:00   42.2    53    0.2   290      1.3   895.7    0.00       0    49.4
  87   20:10   41.6    56    0.1   304      1.0   895.9    0.00       0    49.1
  87   20:20   41.5    54    0.3     3      1.0   896.1    0.00       0    48.8
  87   20:30   41.0    56    1.1    20      1.5   896.2    0.00       0    48.6
  87   20:40   40.4    60    1.5     8      2.2   896.3    0.00       0    48.3
  87   20:50   39.7    65    1.6    21      2.3   896.4    0.00       0    48.0
  87   21:00   38.6    66    0.5     7      2.0   896.5    0.00       0    47.8
  87   21:10   38.0    66    0.0   300      0.3   896.6    0.00       0    47.5
  87   21:20   37.4    67    0.0     0      0.0   896.7    0.00       0    47.3
  87   21:30   37.2    69    0.7    33      1.5   896.7    0.00       0    47.0
  87   21:40   37.3    70    0.4    48      1.4   896.8    0.00       0    46.8
  87   21:50   37.3    69    0.5    35      1.2   896.8    0.00       0    46.6
  87   22:00   36.7    70    0.9   206      1.7   896.8    0.00       0    46.4
  87   22:10   36.0    71    0.6   202      2.3   897.0    0.00       0    46.2
  87   22:20   34.9    74    0.0   192      0.7   897.2    0.00       0    45.9
  87   22:30   35.0    75    1.6    62      3.2   897.1    0.00       0    45.7
  87   22:40   34.9    76    0.7   165      2.0   897.2    0.00       0    45.5
  87   22:50   34.6    76    0.6   286      1.9   897.2    0.00       0    45.3
  87   23:00   34.5    77    0.4   268      1.5   897.3    0.00       0    45.1
  87   23:10   34.5    78    0.6    23      1.8   897.3    0.00       0    44.9
  87   23:20   34.2    78    0.9     6      1.8   897.4    0.00       0    44.7
  87   23:30   33.9    79    1.0    50      2.2   897.5    0.00       0    44.5
  87   23:40   33.9    78    0.5    55      1.5   897.6    0.00       0    44.3
  87   23:50   33.4    78    0.1   321      1.2   897.7    0.00       0    44.2
  88    0:00   33.0    79    0.2   293      1.5   897.8    0.00       0    44.0
  88    0:10   32.7    80    0.2   299      1.0   897.7    0.00       0    43.8
  88    0:20   32.5    80    0.5    38      1.5   897.7    0.00       0    43.7
  88    0:30   32.4    80    0.8   346      1.9   897.8    0.00       0    43.5
  88    0:40   31.8    82    0.4   285      1.5   897.9    0.00       0    43.4
  88    0:50   31.6    82    0.0   291      0.2   898.0    0.00       0    43.2
  88    1:00   31.4    84    0.3    56      1.4   898.1    0.00       0    43.0
  88    1:10   31.4    84    0.7     8      2.0   898.2    0.00       0    42.9
  88    1:20   31.1    84    0.3    25      1.5   898.1    0.00       0    42.7
  88    1:30   30.6    85    0.7    23      1.7   898.1    0.00       0    42.6
  88    1:40   30.2    86    0.9    22      1.6   898.1    0.00       0    42.4
  88    1:50   30.2    86    0.6    16      1.6   898.3    0.00       0    42.3
  88    2:00   30.1    87    0.7   357      1.5   898.4    0.00       0    42.1
  88    2:10   29.9    87    0.2    21      1.2   898.4    0.00       0    42.0
  88    2:20   29.6    87    0.3   315      1.6   898.4    0.00       0    41.9
  88    2:30   29.5    87    0.2   312      0.9   898.5    0.00       0    41.7
  88    2:40   29.6    88    0.7    10      1.4   898.4    0.00       0    41.6
  88    2:50   29.4    88    0.8   310      1.8   898.4    0.00       0    41.5
  88    3:00   29.1    88    0.1   326      1.1   898.5    0.00       0    41.3
  88    3:10   29.0    88    0.9    52      2.2   898.5    0.00       0    41.2
  88    3:20   28.9    88    0.8    42      1.5   898.6    0.00       0    41.0
  88    3:30   28.7    88    1.0    38      2.1   898.6    0.00       0    40.9
  88    3:40   28.6    88    0.9   296      2.2   898.7    0.00       0    40.8
  88    3:50   28.4    88    0.9   279      1.7   898.8    0.00       0    40.7

Return to Alamo, Nevada graphs page.


Western Regional Climate Center,wrcc@dri.edu